Time;durP1;ratioP1;P1;durP2;ratioP2;P2;SDS_P1;SDS_P2;PMS_P1;PMS_P2;Temp;Humidity;BMP_temperature;BMP_pressure;BME280_temperature;BME280_humidity;BME280_pressure;Samples;Min_cycle;Max_cycle;Signal;HPM_P1;HPM_P2
2022/08/29 00:00:49;;;;;;;;;;;25.00;55.20;;;;;;5108862;28;19912;-61
2022/08/29 00:03:14;;;;;;;;;;;25.00;55.50;;;;;;5105857;28;20317;-62
2022/08/29 00:05:39;;;;;;;;;;;25.00;55.70;;;;;;5106765;28;19934;-61
2022/08/29 00:08:05;;;;;;;;;;;25.00;55.60;;;;;;5109373;28;19922;-61
2022/08/29 00:10:31;;;;;;;;;;;25.00;55.80;;;;;;5091312;28;20028;-61
2022/08/29 00:12:56;;;;;;;;;;;25.00;55.70;;;;;;5090672;28;19916;-61
2022/08/29 00:15:22;;;;;;;;;;;25.00;55.80;;;;;;5083468;28;19931;-61
2022/08/29 00:17:47;;;;;;;;;;;25.00;55.80;;;;;;5085924;28;19916;-61
2022/08/29 00:20:21;;;;;;;;;;;24.90;55.90;;;;;;5087776;28;19916;-61
2022/08/29 00:22:47;;;;;;;;;;;24.90;56.10;;;;;;5090485;28;19912;-61
2022/08/29 00:25:12;;;;;;;;;;;24.90;56.20;;;;;;5082817;28;19923;-61
2022/08/29 00:27:38;;;;;;;;;;;24.90;56.00;;;;;;5090540;28;19918;-61
2022/08/29 00:30:04;;;;;;;;;;;24.90;56.10;;;;;;5080094;28;19913;-61
2022/08/29 00:32:33;;;;;;;;;;;25.00;56.20;;;;;;5070106;28;19916;-61
2022/08/29 00:35:00;;;;;;;;;;;24.90;56.10;;;;;;5089954;28;19912;-62
2022/08/29 00:37:25;;;;;;;;;;;24.90;56.20;;;;;;5086794;28;20339;-61
2022/08/29 00:39:51;;;;;;;;;;;24.90;56.30;;;;;;5089262;28;19966;-62
2022/08/29 00:42:16;;;;;;;;;;;24.90;56.40;;;;;;5087913;28;19966;-61
2022/08/29 00:44:42;;;;;;;;;;;24.90;56.40;;;;;;5079858;28;19919;-61
2022/08/29 00:47:08;;;;;;;;;;;24.90;56.20;;;;;;5080564;28;19920;-61
2022/08/29 00:49:35;;;;;;;;;;;24.90;56.60;;;;;;5079158;28;20414;-61
2022/08/29 00:52:16;;;;;;;;;;;24.90;56.60;;;;;;5084178;28;20304;-61
2022/08/29 00:54:42;;;;;;;;;;;24.90;56.50;;;;;;5084235;28;20019;-61
2022/08/29 00:57:07;;;;;;;;;;;24.90;56.40;;;;;;5085477;28;20018;-61
2022/08/29 00:59:36;;;;;;;;;;;24.90;56.50;;;;;;5092521;28;19923;-61
2022/08/29 01:02:03;;;;;;;;;;;24.90;56.50;;;;;;5083348;28;20057;-62
2022/08/29 01:04:29;;;;;;;;;;;24.90;56.60;;;;;;5094502;28;20336;-61
2022/08/29 01:06:54;;;;;;;;;;;24.90;56.80;;;;;;5081097;28;19912;-62
2022/08/29 01:09:20;;;;;;;;;;;24.90;56.70;;;;;;5090735;28;19920;-61
2022/08/29 01:14:30;;;;;;;;;;;24.90;56.70;;;;;;5084326;28;19923;-61
2022/08/29 01:16:56;;;;;;;;;;;24.90;56.80;;;;;;5088994;28;20380;-61
2022/08/29 01:19:40;;;;;;;;;;;24.90;56.70;;;;;;5069412;28;19920;-61
2022/08/29 01:22:15;;;;;;;;;;;24.90;57.00;;;;;;5074800;28;19962;-61
2022/08/29 01:24:42;;;;;;;;;;;24.90;57.00;;;;;;5073674;28;19919;-61
2022/08/29 01:27:08;;;;;;;;;;;24.90;56.90;;;;;;5091289;28;19916;-61
2022/08/29 01:29:34;;;;;;;;;;;24.90;57.20;;;;;;5069480;28;19923;-61
2022/08/29 01:32:00;;;;;;;;;;;24.90;57.20;;;;;;5073047;28;19991;-61
2022/08/29 01:34:26;;;;;;;;;;;24.90;57.20;;;;;;5070895;28;19912;-61
2022/08/29 01:36:58;;;;;;;;;;;24.90;57.30;;;;;;5088572;28;19919;-61
2022/08/29 01:39:27;;;;;;;;;;;24.90;57.20;;;;;;5069839;28;19920;-62
2022/08/29 01:41:53;;;;;;;;;;;24.90;57.40;;;;;;5066054;28;19922;-61
2022/08/29 01:44:19;;;;;;;;;;;24.90;57.40;;;;;;5074622;28;20424;-62
2022/08/29 01:46:45;;;;;;;;;;;24.90;57.40;;;;;;5071487;28;19958;-61
2022/08/29 01:49:11;;;;;;;;;;;24.90;57.40;;;;;;5071410;28;19916;-61
2022/08/29 01:51:37;;;;;;;;;;;24.90;57.50;;;;;;5073294;28;20011;-61
2022/08/29 01:54:04;;;;;;;;;;;24.90;57.60;;;;;;5072514;28;19927;-61
2022/08/29 01:56:30;;;;;;;;;;;24.90;57.60;;;;;;5088604;28;19916;-61
2022/08/29 01:58:56;;;;;;;;;;;24.90;57.50;;;;;;5054020;28;19918;-61
2022/08/29 02:01:23;;;;;;;;;;;24.90;57.50;;;;;;5070307;28;19912;-61
2022/08/29 02:03:48;;;;;;;;;;;24.90;57.50;;;;;;5056167;28;19912;-61
2022/08/29 02:06:14;;;;;;;;;;;24.90;57.50;;;;;;5086764;28;20443;-62
2022/08/29 02:08:40;;;;;;;;;;;24.90;57.50;;;;;;5069437;28;19919;-61
2022/08/29 02:11:10;;;;;;;;;;;24.90;57.80;;;;;;5064161;28;19974;-61
2022/08/29 02:13:36;;;;;;;;;;;24.90;57.50;;;;;;5057206;28;19921;-61
2022/08/29 02:16:02;;;;;;;;;;;24.90;57.70;;;;;;5076091;28;19916;-61
2022/08/29 02:18:27;;;;;;;;;;;24.90;57.60;;;;;;5092705;28;19956;-62
2022/08/29 02:20:53;;;;;;;;;;;25.00;57.70;;;;;;5111054;28;19916;-61
2022/08/29 02:23:18;;;;;;;;;;;24.90;57.60;;;;;;5112316;28;19915;-61
2022/08/29 02:25:46;;;;;;;;;;;24.90;57.50;;;;;;5111301;28;19924;-61
2022/08/29 02:28:12;;;;;;;;;;;24.90;57.60;;;;;;5094130;28;19918;-61
2022/08/29 02:30:39;;;;;;;;;;;24.90;57.50;;;;;;5088078;28;19908;-61
2022/08/29 02:33:04;;;;;;;;;;;24.90;57.50;;;;;;5081220;28;19924;-61
2022/08/29 02:35:29;;;;;;;;;;;24.90;57.60;;;;;;5089252;28;20285;-61
2022/08/29 02:37:55;;;;;;;;;;;24.90;57.70;;;;;;5094261;28;19911;-61
2022/08/29 02:40:20;;;;;;;;;;;24.90;57.70;;;;;;5092822;28;20356;-61
2022/08/29 02:42:46;;;;;;;;;;;24.90;57.80;;;;;;5083485;28;19908;-61
2022/08/29 02:45:11;;;;;;;;;;;24.90;57.90;;;;;;5093186;28;19911;-61
2022/08/29 02:47:37;;;;;;;;;;;24.90;57.90;;;;;;5107512;27;19915;-61
2022/08/29 02:50:04;;;;;;;;;;;24.90;57.90;;;;;;5090561;28;19916;-62
2022/08/29 02:52:29;;;;;;;;;;;24.90;57.90;;;;;;5110195;28;19924;-61
2022/08/29 02:54:55;;;;;;;;;;;24.90;58.00;;;;;;5092966;28;19935;-62
2022/08/29 02:57:20;;;;;;;;;;;24.90;58.10;;;;;;5089951;28;19912;-61
2022/08/29 02:59:46;;;;;;;;;;;24.90;58.00;;;;;;5089181;28;19919;-61
2022/08/29 03:02:11;;;;;;;;;;;24.90;58.00;;;;;;5104204;28;19960;-62
2022/08/29 03:04:37;;;;;;;;;;;24.90;58.10;;;;;;5092431;28;19918;-62
2022/08/29 03:07:04;;;;;;;;;;;24.90;58.20;;;;;;5110591;28;19922;-61
2022/08/29 03:09:29;;;;;;;;;;;24.90;58.20;;;;;;5110662;28;20036;-61
2022/08/29 03:11:55;;;;;;;;;;;24.90;58.10;;;;;;5090841;28;19928;-61
2022/08/29 03:14:21;;;;;;;;;;;24.90;58.20;;;;;;5073215;28;20004;-62
2022/08/29 03:16:46;;;;;;;;;;;24.90;58.10;;;;;;5086618;28;19943;-61
2022/08/29 03:19:11;;;;;;;;;;;24.90;58.00;;;;;;5093519;28;19908;-61
2022/08/29 03:21:37;;;;;;;;;;;24.90;58.10;;;;;;5109312;28;19912;-61
2022/08/29 03:24:02;;;;;;;;;;;24.90;58.00;;;;;;5109539;28;20225;-61
2022/08/29 03:26:28;;;;;;;;;;;24.90;58.20;;;;;;5083598;28;19963;-61
2022/08/29 03:28:53;;;;;;;;;;;24.80;58.20;;;;;;5093699;28;19951;-61
2022/08/29 03:31:19;;;;;;;;;;;24.90;58.40;;;;;;5110578;28;19916;-61
2022/08/29 03:33:44;;;;;;;;;;;24.80;58.30;;;;;;5090998;28;19930;-62
2022/08/29 03:36:10;;;;;;;;;;;24.80;58.40;;;;;;5078912;28;19920;-61
2022/08/29 03:38:37;;;;;;;;;;;24.80;58.40;;;;;;5102318;28;19961;-61
2022/08/29 03:41:05;;;;;;;;;;;24.80;58.30;;;;;;5111692;28;19908;-62
2022/08/29 03:43:31;;;;;;;;;;;24.80;58.30;;;;;;5093535;28;19994;-61
2022/08/29 03:45:56;;;;;;;;;;;24.90;58.30;;;;;;5108566;28;20045;-61
2022/08/29 03:48:22;;;;;;;;;;;24.80;58.20;;;;;;5086576;28;19912;-61
2022/08/29 03:50:47;;;;;;;;;;;24.80;58.20;;;;;;5089888;28;19908;-61
2022/08/29 03:53:13;;;;;;;;;;;24.80;58.30;;;;;;5092244;28;19919;-61
2022/08/29 03:55:38;;;;;;;;;;;24.80;58.40;;;;;;5090703;28;19912;-61
2022/08/29 03:58:04;;;;;;;;;;;24.80;58.30;;;;;;5073147;28;20291;-61
2022/08/29 04:00:29;;;;;;;;;;;24.80;58.20;;;;;;5083711;28;19911;-62
2022/08/29 04:02:57;;;;;;;;;;;24.90;58.40;;;;;;5090560;28;19912;-61
2022/08/29 04:05:22;;;;;;;;;;;24.90;58.40;;;;;;5107992;28;19911;-61
2022/08/29 04:07:49;;;;;;;;;;;24.80;58.30;;;;;;5089705;28;21167;-61
2022/08/29 04:10:16;;;;;;;;;;;24.90;58.40;;;;;;5086873;28;19922;-61
2022/08/29 04:12:41;;;;;;;;;;;24.80;58.60;;;;;;5070819;28;20854;-61
2022/08/29 04:15:07;;;;;;;;;;;24.90;58.50;;;;;;5107366;28;19961;-61
2022/08/29 04:17:33;;;;;;;;;;;24.90;58.50;;;;;;5090696;28;19961;-61
2022/08/29 04:19:58;;;;;;;;;;;24.90;58.40;;;;;;5108893;28;19965;-61
2022/08/29 04:22:24;;;;;;;;;;;24.90;58.50;;;;;;5091989;28;19915;-61
2022/08/29 04:24:49;;;;;;;;;;;24.90;58.40;;;;;;5106198;28;19912;-61
2022/08/29 04:27:16;;;;;;;;;;;24.90;58.40;;;;;;5096850;28;21287;-61
2022/08/29 04:29:42;;;;;;;;;;;24.90;58.50;;;;;;5089478;28;19971;-62
2022/08/29 04:32:07;;;;;;;;;;;24.80;58.20;;;;;;5093091;28;19918;-61
2022/08/29 04:34:33;;;;;;;;;;;24.90;58.70;;;;;;5112824;28;19916;-61
2022/08/29 04:36:58;;;;;;;;;;;24.90;58.70;;;;;;5094113;28;19915;-62
2022/08/29 04:39:24;;;;;;;;;;;24.90;58.70;;;;;;5112073;27;19916;-61
2022/08/29 04:41:49;;;;;;;;;;;24.90;58.70;;;;;;5112148;28;20322;-61
2022/08/29 04:44:15;;;;;;;;;;;24.80;59.00;;;;;;5077230;28;20306;-61
2022/08/29 04:46:40;;;;;;;;;;;24.80;59.00;;;;;;5077115;28;19912;-61
2022/08/29 04:49:06;;;;;;;;;;;24.80;58.60;;;;;;5088985;28;19912;-61
2022/08/29 04:51:33;;;;;;;;;;;24.80;58.60;;;;;;5113209;28;19964;-61
2022/08/29 04:53:58;;;;;;;;;;;24.80;59.00;;;;;;5110824;28;19923;-61
2022/08/29 04:56:23;;;;;;;;;;;24.90;58.80;;;;;;5088161;28;19916;-61
2022/08/29 04:58:50;;;;;;;;;;;24.70;58.90;;;;;;5078285;28;19912;-62
2022/08/29 05:01:17;;;;;;;;;;;24.80;59.00;;;;;;5111394;28;20300;-61
2022/08/29 05:03:42;;;;;;;;;;;24.80;59.00;;;;;;5093186;28;19911;-61
2022/08/29 05:06:09;;;;;;;;;;;24.80;59.00;;;;;;5090404;28;19922;-62
2022/08/29 05:08:34;;;;;;;;;;;24.80;59.00;;;;;;5094601;28;19920;-61
2022/08/29 05:11:00;;;;;;;;;;;24.80;59.00;;;;;;5094258;28;19980;-61
2022/08/29 05:13:26;;;;;;;;;;;24.70;58.90;;;;;;5111134;28;19959;-61
2022/08/29 05:15:52;;;;;;;;;;;24.80;58.70;;;;;;5092551;28;19945;-61
2022/08/29 05:18:17;;;;;;;;;;;24.80;58.50;;;;;;5108954;28;20371;-61
2022/08/29 05:20:43;;;;;;;;;;;24.80;58.40;;;;;;5111410;28;20299;-61
2022/08/29 05:23:08;;;;;;;;;;;24.80;58.40;;;;;;5103742;28;20014;-61
2022/08/29 05:25:34;;;;;;;;;;;24.80;58.40;;;;;;5084808;28;19974;-61
2022/08/29 05:27:59;;;;;;;;;;;24.80;58.30;;;;;;5100897;28;19912;-61
2022/08/29 05:30:25;;;;;;;;;;;24.80;58.20;;;;;;5110761;28;20371;-61
2022/08/29 05:32:51;;;;;;;;;;;24.70;58.10;;;;;;5114436;28;20256;-62
2022/08/29 05:35:16;;;;;;;;;;;24.70;58.10;;;;;;5091985;28;19959;-61
2022/08/29 05:37:42;;;;;;;;;;;24.70;58.00;;;;;;5112896;28;19912;-61
2022/08/29 05:40:07;;;;;;;;;;;24.80;57.90;;;;;;5095277;28;20380;-61
2022/08/29 05:42:33;;;;;;;;;;;24.80;57.70;;;;;;5093920;28;19925;-61
2022/08/29 05:44:58;;;;;;;;;;;24.70;58.40;;;;;;5088721;28;19947;-61
2022/08/29 05:47:24;;;;;;;;;;;24.80;57.70;;;;;;5091337;28;20307;-61
2022/08/29 05:49:49;;;;;;;;;;;24.80;57.60;;;;;;5091938;28;19935;-61
2022/08/29 05:52:15;;;;;;;;;;;24.80;57.60;;;;;;5111631;28;20383;-62
2022/08/29 05:54:41;;;;;;;;;;;24.80;57.50;;;;;;5092953;28;20480;-61
2022/08/29 05:57:07;;;;;;;;;;;24.80;57.50;;;;;;5091986;28;20011;-61
2022/08/29 05:59:34;;;;;;;;;;;24.80;57.40;;;;;;5094992;28;19912;-62
2022/08/29 06:02:00;;;;;;;;;;;24.80;57.40;;;;;;5084061;28;19916;-61
2022/08/29 06:04:25;;;;;;;;;;;24.80;57.30;;;;;;5092425;28;19922;-61
2022/08/29 06:06:51;;;;;;;;;;;24.80;57.20;;;;;;5108209;28;19919;-61
2022/08/29 06:09:16;;;;;;;;;;;24.70;57.10;;;;;;5108849;28;19911;-61
2022/08/29 06:11:44;;;;;;;;;;;24.80;57.20;;;;;;5094870;28;19919;-61
2022/08/29 06:14:09;;;;;;;;;;;24.80;57.10;;;;;;5101864;28;20069;-61
2022/08/29 06:16:35;;;;;;;;;;;24.80;57.10;;;;;;5088918;28;19930;-61
2022/08/29 06:19:00;;;;;;;;;;;24.80;57.00;;;;;;5091287;28;19912;-62
2022/08/29 06:21:26;;;;;;;;;;;24.80;57.00;;;;;;5090232;28;19924;-61
2022/08/29 06:23:51;;;;;;;;;;;24.70;56.90;;;;;;5091138;28;19917;-61
2022/08/29 06:26:18;;;;;;;;;;;24.70;56.90;;;;;;5075073;28;19908;-61
2022/08/29 06:28:46;;;;;;;;;;;24.70;56.90;;;;;;5060375;28;19917;-61
2022/08/29 06:31:20;;;;;;;;;;;24.80;56.90;;;;;;5065348;28;19912;-61
2022/08/29 06:33:45;;;;;;;;;;;24.80;56.80;;;;;;5056480;28;19920;-61
2022/08/29 06:36:11;;;;;;;;;;;24.80;56.90;;;;;;5072052;28;19917;-61
2022/08/29 06:38:36;;;;;;;;;;;24.70;56.90;;;;;;5074273;28;19908;-61
2022/08/29 06:41:02;;;;;;;;;;;24.70;57.00;;;;;;5075014;28;19908;-61
2022/08/29 06:43:28;;;;;;;;;;;24.70;56.90;;;;;;5057601;28;20091;-62
2022/08/29 06:45:53;;;;;;;;;;;24.70;56.80;;;;;;5091308;28;19920;-61
2022/08/29 06:48:19;;;;;;;;;;;24.70;56.70;;;;;;5076624;28;19913;-62
2022/08/29 06:50:44;;;;;;;;;;;24.80;56.70;;;;;;5072132;28;19953;-61
2022/08/29 06:53:10;;;;;;;;;;;24.80;56.60;;;;;;5074125;28;20028;-61
2022/08/29 06:55:35;;;;;;;;;;;24.80;56.50;;;;;;5082220;28;19931;-62
2022/08/29 06:58:01;;;;;;;;;;;24.80;56.60;;;;;;5068122;28;19912;-61
2022/08/29 07:00:26;;;;;;;;;;;24.70;56.50;;;;;;5088383;28;20011;-61
2022/08/29 07:02:52;;;;;;;;;;;24.70;56.70;;;;;;5068731;28;20005;-61
2022/08/29 07:05:17;;;;;;;;;;;24.70;56.80;;;;;;5072359;28;19934;-61
2022/08/29 07:07:43;;;;;;;;;;;24.70;56.80;;;;;;5072917;28;19923;-61
2022/08/29 07:10:11;;;;;;;;;;;24.70;56.90;;;;;;5083565;28;19912;-61
2022/08/29 07:12:36;;;;;;;;;;;24.70;56.70;;;;;;5072318;28;19915;-61
2022/08/29 07:15:02;;;;;;;;;;;24.70;56.70;;;;;;5071094;28;19969;-61
2022/08/29 07:17:28;;;;;;;;;;;24.70;56.70;;;;;;5092291;28;19945;-61
2022/08/29 07:19:53;;;;;;;;;;;24.70;56.60;;;;;;5086055;28;19916;-61
2022/08/29 07:22:19;;;;;;;;;;;24.60;56.70;;;;;;5082733;28;20291;-61
2022/08/29 07:24:44;;;;;;;;;;;24.70;56.70;;;;;;5063736;28;19919;-61
2022/08/29 07:27:10;;;;;;;;;;;24.70;56.50;;;;;;5104011;28;20322;-61
2022/08/29 07:29:36;;;;;;;;;;;24.80;56.50;;;;;;5081836;28;19922;-61
2022/08/29 07:32:01;;;;;;;;;;;24.80;56.40;;;;;;5085683;28;19969;-61
2022/08/29 07:34:27;;;;;;;;;;;24.70;56.50;;;;;;5091161;28;20002;-62
2022/08/29 07:36:52;;;;;;;;;;;24.70;56.50;;;;;;5107042;28;19947;-61
2022/08/29 07:39:18;;;;;;;;;;;24.80;56.50;;;;;;5107888;28;19912;-61
2022/08/29 07:41:44;;;;;;;;;;;24.80;56.60;;;;;;5087307;28;19963;-62
2022/08/29 07:44:09;;;;;;;;;;;24.70;56.50;;;;;;5092539;28;19924;-62
2022/08/29 07:46:35;;;;;;;;;;;24.80;56.50;;;;;;5107096;28;19983;-61
2022/08/29 07:49:00;;;;;;;;;;;24.80;56.50;;;;;;5111354;28;20351;-61
2022/08/29 07:51:26;;;;;;;;;;;24.80;56.40;;;;;;5108608;28;19912;-61
2022/08/29 07:53:51;;;;;;;;;;;24.90;56.40;;;;;;5107219;28;20088;-60
2022/08/29 07:56:18;;;;;;;;;;;24.90;56.40;;;;;;5085569;28;20107;-61
2022/08/29 07:58:44;;;;;;;;;;;24.90;56.30;;;;;;5084185;28;20436;-60
2022/08/29 08:01:09;;;;;;;;;;;24.80;56.30;;;;;;5107876;28;19920;-59
2022/08/29 08:03:34;;;;;;;;;;;24.70;56.50;;;;;;5088617;28;19912;-61
2022/08/29 08:06:01;;;;;;;;;;;24.70;56.50;;;;;;5100295;27;20372;-58
2022/08/29 08:08:26;;;;;;;;;;;24.80;56.50;;;;;;5094013;28;19915;-60
2022/08/29 08:10:51;;;;;;;;;;;24.80;56.50;;;;;;5094263;28;19919;-61
2022/08/29 08:13:17;;;;;;;;;;;24.80;56.30;;;;;;5095945;28;19916;-60
2022/08/29 08:15:42;;;;;;;;;;;24.90;56.20;;;;;;5093603;28;19999;-62
2022/08/29 08:18:08;;;;;;;;;;;24.90;56.20;;;;;;5105779;28;19912;-61
2022/08/29 08:20:33;;;;;;;;;;;24.80;56.30;;;;;;5095664;27;19965;-61
2022/08/29 08:22:59;;;;;;;;;;;24.80;57.10;;;;;;5112788;28;19920;-60
2022/08/29 08:25:25;;;;;;;;;;;24.90;56.40;;;;;;5092642;28;19922;-60
2022/08/29 08:27:50;;;;;;;;;;;24.90;56.20;;;;;;5112995;28;19908;-59
2022/08/29 08:30:16;;;;;;;;;;;24.90;56.20;;;;;;5108315;28;20012;-61
2022/08/29 08:32:41;;;;;;;;;;;24.90;56.30;;;;;;5114832;28;20288;-61
2022/08/29 08:35:07;;;;;;;;;;;24.80;56.40;;;;;;5107203;28;19912;-62
2022/08/29 08:37:32;;;;;;;;;;;24.70;56.50;;;;;;5094176;28;19912;-60
2022/08/29 08:39:58;;;;;;;;;;;24.80;56.40;;;;;;5109090;28;19924;-61
2022/08/29 08:42:27;;;;;;;;;;;24.80;56.40;;;;;;5098126;28;20432;-62
2022/08/29 08:45:15;;;;;;;;;;;24.80;56.30;;;;;;5088376;28;19962;-61
2022/08/29 08:47:42;;;;;;;;;;;24.90;56.20;;;;;;5092068;28;20287;-60
2022/08/29 08:50:16;;;;;;;;;;;24.90;56.20;;;;;;5112440;28;20314;-61
2022/08/29 08:52:46;;;;;;;;;;;24.80;56.30;;;;;;5091857;28;19938;-61
2022/08/29 08:55:33;;;;;;;;;;;24.90;56.20;;;;;;5094606;28;19912;-62
2022/08/29 08:58:04;;;;;;;;;;;24.90;56.00;;;;;;5096449;28;19916;-59
2022/08/29 09:00:33;;;;;;;;;;;25.00;56.10;;;;;;5106191;28;19982;-62
2022/08/29 09:03:23;;;;;;;;;;;25.00;56.10;;;;;;5095989;28;19915;-61
2022/08/29 09:05:55;;;;;;;;;;;24.90;56.20;;;;;;5113052;28;19916;-62
2022/08/29 09:08:23;;;;;;;;;;;25.00;56.10;;;;;;5093888;28;20384;-62
2022/08/29 09:10:54;;;;;;;;;;;25.00;56.00;;;;;;5110919;28;20009;-61
2022/08/29 09:13:41;;;;;;;;;;;24.90;56.10;;;;;;5095675;28;19984;-62
2022/08/29 09:16:08;;;;;;;;;;;24.90;56.20;;;;;;5094094;28;19959;-62
2022/08/29 09:18:35;;;;;;;;;;;24.90;56.20;;;;;;5091576;28;19920;-60
2022/08/29 09:21:01;;;;;;;;;;;24.80;56.50;;;;;;5077192;28;19919;-58
2022/08/29 09:23:38;;;;;;;;;;;24.70;56.70;;;;;;5094174;28;19919;-59
2022/08/29 09:26:04;;;;;;;;;;;24.70;56.80;;;;;;5082272;28;19955;-59
2022/08/29 09:28:30;;;;;;;;;;;24.60;56.90;;;;;;5111877;28;20371;-60
2022/08/29 09:31:14;;;;;;;;;;;24.70;57.00;;;;;;5108937;28;19916;-61
2022/08/29 09:33:41;;;;;;;;;;;24.60;57.00;;;;;;5105305;28;20022;-61
2022/08/29 09:36:08;;;;;;;;;;;24.60;57.60;;;;;;5108103;28;19912;-62
2022/08/29 09:38:34;;;;;;;;;;;24.60;57.00;;;;;;5092304;28;19919;-61
2022/08/29 09:41:01;;;;;;;;;;;24.60;57.10;;;;;;5075344;28;19923;-62
2022/08/29 09:43:43;;;;;;;;;;;24.60;57.00;;;;;;5111406;28;20371;-61
2022/08/29 09:46:19;;;;;;;;;;;24.70;56.90;;;;;;5083527;28;19923;-61
2022/08/29 09:48:46;;;;;;;;;;;24.60;57.00;;;;;;5111717;28;19962;-62
2022/08/29 09:51:23;;;;;;;;;;;24.60;57.10;;;;;;5093527;28;19908;-62
2022/08/29 09:53:49;;;;;;;;;;;24.60;57.20;;;;;;5071115;28;20051;-61
2022/08/29 09:56:16;;;;;;;;;;;24.60;57.20;;;;;;5112944;28;20415;-61
2022/08/29 09:58:41;;;;;;;;;;;24.50;57.10;;;;;;5084589;28;20308;-62
2022/08/29 10:01:19;;;;;;;;;;;24.60;57.10;;;;;;5102205;28;19953;-62
2022/08/29 10:03:57;;;;;;;;;;;24.60;57.20;;;;;;5091561;28;19919;-61
2022/08/29 10:06:24;;;;;;;;;;;24.60;57.20;;;;;;5091848;28;19912;-61
2022/08/29 10:08:57;;;;;;;;;;;24.60;57.30;;;;;;5091022;28;20291;-60
2022/08/29 10:11:33;;;;;;;;;;;24.60;57.30;;;;;;5111877;28;19911;-60
2022/08/29 10:14:04;;;;;;;;;;;24.50;57.10;;;;;;5106342;28;20346;-61
2022/08/29 10:16:36;;;;;;;;;;;24.60;57.10;;;;;;5071085;28;19966;-61
2022/08/29 10:19:02;;;;;;;;;;;24.70;56.90;;;;;;5071363;28;19908;-62
2022/08/29 10:21:31;;;;;;;;;;;24.70;56.80;;;;;;5091249;28;20364;-61
2022/08/29 10:24:15;;;;;;;;;;;24.70;56.70;;;;;;5071569;28;20322;-60
2022/08/29 10:26:59;;;;;;;;;;;24.70;56.80;;;;;;5073121;28;19912;-61
2022/08/29 10:29:27;;;;;;;;;;;24.70;56.90;;;;;;5089102;28;19923;-61
2022/08/29 10:32:00;;;;;;;;;;;24.60;57.00;;;;;;5086501;28;19912;-61
2022/08/29 10:34:44;;;;;;;;;;;24.70;56.90;;;;;;5088541;28;20383;-60
2022/08/29 10:37:15;;;;;;;;;;;24.80;56.80;;;;;;5079515;28;19951;-60
2022/08/29 10:39:57;;;;;;;;;;;24.80;56.60;;;;;;5072674;28;19908;-62
2022/08/29 10:42:23;;;;;;;;;;;24.80;56.50;;;;;;5072771;28;19919;-62
2022/08/29 10:44:52;;;;;;;;;;;24.80;56.70;;;;;;5083873;28;20310;-61
2022/08/29 10:47:35;;;;;;;;;;;24.80;56.70;;;;;;5089549;28;19912;-61
2022/08/29 10:50:03;;;;;;;;;;;24.90;56.50;;;;;;5082044;28;19916;-61
2022/08/29 10:52:45;;;;;;;;;;;24.80;56.40;;;;;;5086683;28;20039;-60
2022/08/29 10:55:16;;;;;;;;;;;24.90;56.20;;;;;;5069576;28;19916;-61
2022/08/29 10:57:47;;;;;;;;;;;25.00;56.20;;;;;;5087725;28;20354;-61
2022/08/29 11:00:20;;;;;;;;;;;24.90;56.30;;;;;;5087559;28;20285;-60
2022/08/29 11:02:48;;;;;;;;;;;24.80;56.30;;;;;;5089906;28;19920;-61
2022/08/29 11:05:15;;;;;;;;;;;24.80;56.30;;;;;;5086355;28;19990;-61
2022/08/29 11:07:42;;;;;;;;;;;24.80;56.40;;;;;;5069899;28;19916;-60
2022/08/29 11:10:16;;;;;;;;;;;24.80;56.40;;;;;;5069943;28;19908;-60
2022/08/29 11:12:44;;;;;;;;;;;24.80;56.30;;;;;;5073411;28;19973;-60
2022/08/29 11:15:12;;;;;;;;;;;24.80;56.50;;;;;;5071599;28;19931;-59
2022/08/29 11:17:39;;;;;;;;;;;24.80;56.50;;;;;;5091606;28;19925;-61
2022/08/29 11:20:37;;;;;;;;;;;24.80;56.40;;;;;;5070489;28;20291;-61
2022/08/29 11:23:07;;;;;;;;;;;24.80;56.20;;;;;;5021979;28;19912;-60
2022/08/29 11:25:33;;;;;;;;;;;24.80;56.00;;;;;;5054952;28;19951;-62
2022/08/29 11:28:03;;;;;;;;;;;24.90;56.00;;;;;;5073570;28;19939;-60
2022/08/29 11:30:30;;;;;;;;;;;24.90;56.00;;;;;;5071383;28;20355;-60
2022/08/29 11:33:02;;;;;;;;;;;24.90;55.80;;;;;;5073329;28;20367;-60
2022/08/29 11:35:32;;;;;;;;;;;24.90;55.80;;;;;;5088754;28;20384;-61
2022/08/29 11:38:05;;;;;;;;;;;24.90;55.80;;;;;;5071665;28;19916;-61
2022/08/29 11:40:49;;;;;;;;;;;24.90;55.70;;;;;;5052569;28;20228;-60
2022/08/29 11:43:16;;;;;;;;;;;24.90;55.80;;;;;;5079669;28;19912;-61
2022/08/29 11:45:42;;;;;;;;;;;25.00;55.90;;;;;;5071085;28;20058;-60
2022/08/29 11:48:07;;;;;;;;;;;25.00;55.80;;;;;;5073103;28;20006;-60
2022/08/29 11:50:36;;;;;;;;;;;25.00;55.90;;;;;;5071220;28;19954;-62
2022/08/29 11:53:17;;;;;;;;;;;25.10;55.70;;;;;;5065772;28;20358;-61
2022/08/29 11:55:43;;;;;;;;;;;25.10;55.70;;;;;;5086321;28;19912;-60
2022/08/29 11:58:15;;;;;;;;;;;25.10;55.60;;;;;;5067644;28;20292;-59
2022/08/29 12:00:42;;;;;;;;;;;25.20;55.40;;;;;;5084255;28;19912;-61
2022/08/29 12:03:26;;;;;;;;;;;25.10;55.20;;;;;;5069541;28;19995;-60
2022/08/29 12:05:55;;;;;;;;;;;25.20;55.30;;;;;;5084015;28;19928;-60
2022/08/29 12:08:30;;;;;;;;;;;25.20;55.30;;;;;;5072459;28;19908;-61
2022/08/29 12:10:56;;;;;;;;;;;25.10;55.40;;;;;;5073292;28;19908;-62
2022/08/29 12:13:40;;;;;;;;;;;25.10;55.40;;;;;;5090980;28;19923;-60
2022/08/29 12:16:08;;;;;;;;;;;25.10;55.40;;;;;;5104690;28;19928;-61
2022/08/29 12:18:34;;;;;;;;;;;25.10;55.40;;;;;;5105957;28;19924;-59
2022/08/29 12:21:01;;;;;;;;;;;25.10;55.50;;;;;;5091897;28;19923;-61
2022/08/29 12:23:30;;;;;;;;;;;25.10;56.10;;;;;;5108030;28;20375;-61
2022/08/29 12:26:01;;;;;;;;;;;25.10;55.40;;;;;;5108828;28;19912;-60
2022/08/29 12:28:29;;;;;;;;;;;25.10;55.40;;;;;;5091041;28;19916;-60
2022/08/29 12:30:58;;;;;;;;;;;25.10;55.50;;;;;;5106831;28;19915;-60
2022/08/29 12:33:34;;;;;;;;;;;25.10;55.50;;;;;;5104641;28;19977;-62
2022/08/29 12:36:06;;;;;;;;;;;25.10;55.50;;;;;;5115558;28;19916;-60
2022/08/29 12:38:38;;;;;;;;;;;25.10;55.40;;;;;;5108356;28;19912;-61
2022/08/29 12:41:22;;;;;;;;;;;25.10;55.30;;;;;;5107753;28;20173;-61
2022/08/29 12:43:49;;;;;;;;;;;25.10;55.30;;;;;;5108660;28;20467;-61
2022/08/29 12:46:22;;;;;;;;;;;25.10;55.20;;;;;;5090426;28;19972;-61
2022/08/29 12:48:50;;;;;;;;;;;25.10;55.20;;;;;;5089364;28;20260;-61
2022/08/29 12:51:38;;;;;;;;;;;25.10;55.20;;;;;;5089299;28;19920;-62
2022/08/29 12:54:03;;;;;;;;;;;25.10;55.20;;;;;;5111763;28;20449;-61
2022/08/29 12:56:29;;;;;;;;;;;25.10;55.20;;;;;;5093406;28;20017;-61
2022/08/29 12:58:55;;;;;;;;;;;25.20;55.30;;;;;;5096529;28;19955;-61
2022/08/29 13:01:21;;;;;;;;;;;25.20;55.30;;;;;;5092021;28;19916;-61
2022/08/29 13:04:01;;;;;;;;;;;25.10;55.20;;;;;;5113003;28;20006;-61
2022/08/29 13:06:27;;;;;;;;;;;25.10;55.30;;;;;;5106113;28;19978;-61
2022/08/29 13:08:52;;;;;;;;;;;25.10;55.40;;;;;;5110704;28;19915;-62
2022/08/29 13:11:19;;;;;;;;;;;25.10;55.20;;;;;;5113493;28;19951;-62
2022/08/29 13:13:45;;;;;;;;;;;25.20;55.30;;;;;;5108766;28;19924;-62
2022/08/29 13:16:21;;;;;;;;;;;25.20;55.30;;;;;;5088673;28;20321;-61
2022/08/29 13:18:46;;;;;;;;;;;25.20;55.20;;;;;;5092384;28;19935;-62
2022/08/29 13:21:17;;;;;;;;;;;25.20;55.20;;;;;;5086945;28;20368;-62
2022/08/29 13:23:46;;;;;;;;;;;25.30;55.10;;;;;;5090283;28;19940;-61
2022/08/29 13:26:12;;;;;;;;;;;25.30;55.00;;;;;;5087750;28;20020;-62
2022/08/29 13:28:44;;;;;;;;;;;25.20;55.00;;;;;;5075716;28;19908;-63
2022/08/29 13:31:12;;;;;;;;;;;25.20;55.10;;;;;;5091495;28;19922;-62
2022/08/29 13:33:44;;;;;;;;;;;25.30;55.20;;;;;;5093500;28;19916;-61
2022/08/29 13:36:28;;;;;;;;;;;25.30;55.00;;;;;;5090391;28;19954;-62
2022/08/29 13:39:12;;;;;;;;;;;25.30;55.00;;;;;;5088684;28;19959;-61
2022/08/29 13:41:37;;;;;;;;;;;25.30;55.20;;;;;;5071674;28;19916;-62
2022/08/29 13:44:03;;;;;;;;;;;25.30;55.10;;;;;;5091351;28;19912;-59
2022/08/29 13:46:31;;;;;;;;;;;25.30;55.10;;;;;;5088150;28;19916;-60
2022/08/29 13:49:01;;;;;;;;;;;25.20;55.10;;;;;;5074365;28;19919;-62
2022/08/29 13:51:27;;;;;;;;;;;25.30;55.10;;;;;;5090563;28;19916;-62
2022/08/29 13:53:53;;;;;;;;;;;25.30;55.10;;;;;;5091741;28;19947;-62
2022/08/29 13:56:23;;;;;;;;;;;25.30;55.10;;;;;;5089646;28;20296;-61
2022/08/29 13:58:50;;;;;;;;;;;25.30;54.90;;;;;;5086703;28;19916;-60
2022/08/29 14:01:21;;;;;;;;;;;25.30;55.00;;;;;;5072866;28;19916;-62
2022/08/29 14:03:47;;;;;;;;;;;25.30;55.00;;;;;;5094711;28;19916;-61
2022/08/29 14:06:15;;;;;;;;;;;25.30;55.00;;;;;;5091589;28;20357;-60
2022/08/29 14:08:41;;;;;;;;;;;25.30;55.20;;;;;;5090045;28;19965;-61
2022/08/29 14:11:06;;;;;;;;;;;25.40;55.00;;;;;;5089523;28;20264;-62
2022/08/29 14:13:31;;;;;;;;;;;25.60;54.70;;;;;;5073510;28;19963;-62
2022/08/29 14:15:57;;;;;;;;;;;25.60;54.30;;;;;;5089948;28;19921;-60
2022/08/29 14:18:22;;;;;;;;;;;25.70;54.30;;;;;;5093581;28;20023;-61
2022/08/29 14:20:48;;;;;;;;;;;25.70;54.30;;;;;;5091395;28;19912;-62
2022/08/29 14:23:13;;;;;;;;;;;25.70;54.50;;;;;;5092778;28;20688;-62